• Join FlightAware (Why Join?)
  • Login
  • US Flag 
11:46AM EDT


 

Airport Tracker/Info


-or-


 

Live Flight TrackerFlight Track Log ✈ ASQ6041 ✈ 21-Apr-2013 ✈ KLNK - KDEN

Flight Track Log - Related Links

Times and Time Zones

All times are in EDT time to prevent confusion due to time zone crossing. See the ASQ6041 flight status page for this flight to view local times or setup timezone preferences in your user account.

Time Position Orientation Groundspeed Altitude Reporting Facility
EDT Latitude Longitude Course Direction KTS MPH feet Rate Location/Type
02:00PM 40.8019 -96.7689 211° Southwest 170 196 3,100  Level Minneapolis Center
02:00PM 40.8011 -96.7936 267° West 164 189 4,000 2,220 Climbing Minneapolis Center
02:01PM 40.7900 -96.8756 260° West 213 245 6,500 2,520 Climbing Minneapolis Center
02:02PM 40.7819 -96.9675 263° West 245 282 9,200 2,340 Climbing Minneapolis Center
02:03PM 40.7697 -97.0656 261° West 264 304 11,300 1,500 Climbing Minneapolis Center
02:04PM 40.7558 -97.1814 261° West 309 356 12,300 1,380 Climbing Minneapolis Center
02:05PM 40.7383 -97.3322 261° West 342 394 14,200 1,560 Climbing Minneapolis Center
02:06PM 40.7228 -97.4550 261° West 354 407 15,600 1,380 Climbing Minneapolis Center
02:07PM 40.7094 -97.5858 262° West 358 412 17,100 1,380 Climbing Minneapolis Center
02:08PM 40.6919 -97.7172 260° West 362 417 18,500 1,380 Climbing Minneapolis Center
02:09PM 40.6764 -97.8494 261° West 364 419 20,000 1,440 Climbing Minneapolis Center
02:10PM 40.6606 -97.9831 261° West 367 422 21,500 1,440 Climbing Minneapolis Center
02:12PM 40.6439 -98.1172 261° West 369 425 23,000 1,440 Climbing Minneapolis Center
02:13PM 40.6239 -98.2781 261° West 369 425 24,500 1,200 Climbing Minneapolis Center
02:14PM 40.6075 -98.4153 261° West 375 432 25,500 960 Climbing Minneapolis Center
02:15PM 40.6158 -98.5556 275° West 385 443 26,500 900 Climbing Minneapolis Center
02:16PM 40.6269 -98.6944 276° West 380 437 27,400 900 Climbing Minneapolis Center
02:17PM 40.6403 -98.8331 277° West 380 437 28,400 960 Climbing Minneapolis Center
02:18PM 40.6528 -98.9711 277° West 378 435 29,400 960 Climbing Minneapolis Center
02:19PM 40.6642 -99.1097 276° West 378 435 30,400 1,080 Climbing Minneapolis Center
02:19PM 40.6714 -99.1933 277° West 382 440 31,100 960 Climbing Denver Center
02:20PM 40.6833 -99.3336 276° West 383 441 32,100 900 Climbing Denver Center
02:21PM 40.6975 -99.5025 276° West 386 444 33,200 900 Climbing Denver Center
02:23PM 40.7092 -99.6433 276° West 387 445 34,000 360 Climbing Denver Center
02:24PM 40.7214 -99.7875 276° West 392 451 34,000  Level Denver Center
02:25PM 40.7344 -99.9514 276° West 399 459 34,000  Level Denver Center
02:26PM 40.7450 -100.0906 276° West 400 460 34,000  Level Denver Center
02:27PM 40.7569 -100.2517 276° West 397 457 34,000  Level Denver Center
02:28PM 40.7669 -100.3894 276° West 394 453 34,000  Level Denver Center
02:29PM 40.7556 -100.5528 265° West 402 463 34,000  Level Denver Center
02:30PM 40.7339 -100.6950 259° West 405 466 34,000  Level Denver Center
02:31PM 40.7119 -100.8369 259° West 404 465 34,000  Level Denver Center
02:32PM 40.6864 -101.0008 258° West 404 465 34,000  Level Denver Center
02:33PM 40.6650 -101.1397 259° West 404 465 34,000  Level Denver Center
02:34PM 40.6436 -101.2772 258° West 402 463 34,000  Level Denver Center
02:35PM 40.6175 -101.4378 258° West 402 463 34,000  Level Denver Center
02:36PM 40.5958 -101.5747 258° West 399 459 34,000  Level Denver Center
02:37PM 40.5697 -101.7342 258° West 399 459 34,000  Level Denver Center
02:38PM 40.5469 -101.8708 258° West 399 459 34,000  Level Denver Center
02:39PM 40.5192 -102.0303 257° West 399 459 34,000  Level Denver Center
02:40PM 40.4967 -102.1672 258° West 401 461 34,000  Level Denver Center
02:41PM 40.4692 -102.3264 257° West 401 461 34,000  Level Denver Center
02:42PM 40.4461 -102.4625 257° West 399 459 34,000  Level Denver Center
02:43PM 40.4233 -102.5981 258° West 398 458 34,000  Level Denver Center
02:44PM 40.3972 -102.7447 257° West 401 461 34,000  Level Denver Center
02:45PM 40.3686 -102.9131 257° West 403 464 34,000 -120 Level Denver Center
02:46PM 40.3436 -103.0558 257° West 401 461 33,800 -1,080 Descending Denver Center
02:47PM 40.3181 -103.1967 257° West 394 453 31,800 -2,040 Descending Denver Center
02:48PM 40.2942 -103.3342 257° West 385 443 29,700 -2,040 Descending Denver Center
02:49PM 40.2700 -103.4697 257° West 381 438 27,600 -2,040 Descending Denver Center
02:50PM 40.2450 -103.6053 256° West 382 440 25,600 -2,100 Descending Denver Center
02:51PM 40.2178 -103.7528 256° West 381 438 23,400 -1,920 Descending Denver Center
02:52PM 40.1928 -103.8683 254° West 330 380 21,700 -1,860 Descending Denver Center
02:53PM 40.1483 -103.9653 239° Southwest 314 361 19,600 -1,920 Descending Denver Center
02:54PM 40.0994 -104.0678 238° Southwest 309 356 17,800 -1,620 Descending Denver Center
02:55PM 40.0569 -104.1631 240° Southwest 306 352 16,300 -1,260 Descending Denver Center
02:57PM 40.0139 -104.2561 239° Southwest 301 346 15,200 -1,080 Descending Denver Center
02:58PM 39.9692 -104.3517 239° Southwest 285 328 14,100 -1,080 Descending Denver Center
02:59PM 39.9289 -104.4367 238° Southwest 276 318 13,000 -1,320 Descending Denver Center
02:59PM 39.9167 -104.4667 242° Southwest 273 314 12,300 -1,800 Descending Denver TRACON
03:00PM 39.8678 -104.4997 207° Southwest 272 313 11,200 -780 Descending Denver Center
03:01PM 39.7983 -104.5006 181° South 248 285 11,000 -540 Descending Denver Center
03:02PM 39.7347 -104.5200 193° South 239 275 10,200 -1,200 Descending Denver Center
03:03PM 39.6933 -104.5853 231° Southwest 235 270 8,600 -1,260 Descending Denver Center
03:04PM 39.7267 -104.6528 303° West 225 259 7,600 -1,020 Descending Denver Center
03:05PM 39.7786 -104.6611 353° North 188 216 6,500 -1,020 Descending Denver Center
03:06PM 39.8250 -104.6608 360° North 158 182 5,600 -900 Descending Denver Center
03:08PM 39.8500 -104.6667 North  Level FlightAware Approximate
03:15PM 39.8617 -104.6732 North  Level Estimated
03:16PM 39.8617 -104.6732 North  Level Estimated
03:17PM 39.8617 -104.6732 North  Level Estimated